createdAt,value
2017-10-05T00:02:13.004Z,15.00
2017-10-05T00:04:40.554Z,15.00
2017-10-05T00:07:08.064Z,15.00
2017-10-05T00:09:35.954Z,15.00
2017-10-05T00:12:03.487Z,15.00
2017-10-05T00:14:31.771Z,15.00
2017-10-05T00:16:59.344Z,15.00
2017-10-05T00:19:27.630Z,14.90
2017-10-05T00:21:55.201Z,14.90
2017-10-05T00:24:22.717Z,15.00
2017-10-05T00:26:51.005Z,15.00
2017-10-05T00:29:19.308Z,15.00
2017-10-05T00:31:46.823Z,15.00
2017-10-05T00:34:15.440Z,15.00
2017-10-05T00:36:42.955Z,14.50
2017-10-05T00:39:10.470Z,14.90
2017-10-05T00:41:38.020Z,14.90
2017-10-05T00:44:05.555Z,14.90
2017-10-05T00:46:34.139Z,14.90
2017-10-05T00:49:02.451Z,14.90
2017-10-05T00:51:29.962Z,14.90
2017-10-05T00:53:57.495Z,14.90
2017-10-05T00:56:25.045Z,14.90
2017-10-05T00:58:52.901Z,14.90
2017-10-05T01:01:20.445Z,14.80
2017-10-05T01:03:47.964Z,14.90
2017-10-05T01:06:15.500Z,14.80
2017-10-05T01:08:43.019Z,14.90
2017-10-05T01:11:10.915Z,14.80
2017-10-05T01:13:38.448Z,14.80
2017-10-05T01:16:05.972Z,14.80
2017-10-05T01:18:33.517Z,14.80
2017-10-05T01:21:01.053Z,14.80
2017-10-05T01:23:28.893Z,14.80
2017-10-05T01:25:56.421Z,14.80
2017-10-05T01:28:23.936Z,14.80
2017-10-05T01:30:51.469Z,14.70
2017-10-05T01:33:18.996Z,14.70
2017-10-05T01:35:46.940Z,14.70
2017-10-05T01:38:14.460Z,14.70
2017-10-05T01:40:41.999Z,14.70
2017-10-05T01:43:10.306Z,14.60
2017-10-05T01:45:37.827Z,14.60
2017-10-05T01:48:05.647Z,14.70
2017-10-05T01:50:33.180Z,14.60
2017-10-05T01:53:01.452Z,14.70
2017-10-05T01:55:29.771Z,14.70
2017-10-05T01:57:57.289Z,14.70
2017-10-05T02:00:25.652Z,14.70
2017-10-05T02:02:53.187Z,14.70
2017-10-05T02:05:20.716Z,14.70
2017-10-05T02:07:48.254Z,14.70
2017-10-05T02:10:16.532Z,14.70
2017-10-05T02:12:45.131Z,14.70
2017-10-05T02:15:12.647Z,14.70
2017-10-05T02:17:40.161Z,14.70
2017-10-05T02:20:07.722Z,14.70
2017-10-05T02:22:35.242Z,14.70
2017-10-05T02:25:03.855Z,14.60
2017-10-05T02:27:31.409Z,14.70
2017-10-05T02:29:58.938Z,14.70
2017-10-05T02:32:26.506Z,14.70
2017-10-05T02:34:54.788Z,14.70
2017-10-05T02:37:23.514Z,14.70
2017-10-05T02:39:51.029Z,14.70
2017-10-05T02:42:19.316Z,14.70
2017-10-05T02:44:47.612Z,14.70
2017-10-05T02:47:15.135Z,14.70
2017-10-05T02:49:42.695Z,14.70
2017-10-05T02:52:10.211Z,14.70
2017-10-05T02:54:37.744Z,14.70
2017-10-05T02:57:06.057Z,14.80
2017-10-05T02:59:33.583Z,14.70
2017-10-05T03:02:02.154Z,14.80
2017-10-05T03:04:30.445Z,14.80
2017-10-05T03:06:58.735Z,14.80
2017-10-05T03:09:26.292Z,14.80
2017-10-05T03:11:53.827Z,14.80
2017-10-05T03:14:22.467Z,14.80
2017-10-05T03:16:49.981Z,14.70
2017-10-05T03:19:18.263Z,14.80
2017-10-05T03:21:46.568Z,14.80
2017-10-05T03:24:14.087Z,14.80
2017-10-05T03:26:42.425Z,14.80
2017-10-05T03:29:09.935Z,14.80
2017-10-05T03:31:38.231Z,14.80
2017-10-05T03:34:05.780Z,14.80
2017-10-05T03:36:34.063Z,14.80
2017-10-05T03:39:01.627Z,14.80
2017-10-05T03:41:29.149Z,14.80
2017-10-05T03:43:56.674Z,14.80
2017-10-05T03:46:24.237Z,14.80
2017-10-05T03:48:51.761Z,14.70
2017-10-05T03:51:19.342Z,14.70
2017-10-05T03:53:46.920Z,14.70
2017-10-05T03:56:14.463Z,14.70
2017-10-05T03:58:42.013Z,14.70
2017-10-05T04:01:09.569Z,14.70
2017-10-05T04:03:37.480Z,14.70
2017-10-05T04:06:05.020Z,14.70
2017-10-05T04:08:32.531Z,14.60
2017-10-05T04:11:00.840Z,14.60
2017-10-05T04:13:28.379Z,14.60
2017-10-05T04:15:56.713Z,14.50
2017-10-05T04:18:24.238Z,14.50
2017-10-05T04:20:51.783Z,14.40
2017-10-05T04:23:20.103Z,14.40
2017-10-05T04:25:47.617Z,14.40
2017-10-05T04:28:16.336Z,14.30
2017-10-05T04:30:43.869Z,14.30
2017-10-05T04:33:11.395Z,14.30
2017-10-05T04:35:38.933Z,14.30
2017-10-05T04:38:06.452Z,14.30
2017-10-05T04:40:34.299Z,14.30
2017-10-05T04:43:02.617Z,14.30
2017-10-05T04:45:30.134Z,14.30
2017-10-05T04:47:57.688Z,14.30
2017-10-05T04:50:25.199Z,14.30
2017-10-05T04:52:53.009Z,14.20
2017-10-05T04:55:20.526Z,14.10
2017-10-05T04:57:48.047Z,14.00
2017-10-05T05:00:16.364Z,13.80
2017-10-05T05:02:43.892Z,13.80
2017-10-05T05:05:12.222Z,13.60
2017-10-05T05:07:39.770Z,13.60
2017-10-05T05:10:07.291Z,13.50
2017-10-05T05:12:35.614Z,13.20
2017-10-05T05:15:03.140Z,13.20
2017-10-05T05:17:30.707Z,13.10
2017-10-05T05:19:58.255Z,13.00
2017-10-05T05:22:26.549Z,13.00
2017-10-05T05:24:54.100Z,13.00
2017-10-05T05:27:21.609Z,13.00
2017-10-05T05:29:49.200Z,13.00
2017-10-05T05:32:17.507Z,13.10
2017-10-05T05:34:45.018Z,13.00
2017-10-05T05:37:12.552Z,13.10
2017-10-05T05:39:40.325Z,13.10
2017-10-05T05:42:08.151Z,13.10
2017-10-05T05:44:36.368Z,13.10
2017-10-05T05:47:03.891Z,13.10
2017-10-05T05:49:31.461Z,13.10
2017-10-05T05:51:58.972Z,13.10
2017-10-05T05:54:26.815Z,13.00
2017-10-05T05:56:54.370Z,13.00
2017-10-05T05:59:22.730Z,13.00
2017-10-05T06:01:50.294Z,12.90
2017-10-05T06:04:17.830Z,12.90
2017-10-05T06:06:45.754Z,13.00
2017-10-05T06:09:13.272Z,13.00
2017-10-05T06:11:40.803Z,13.00
2017-10-05T06:14:09.138Z,13.00
2017-10-05T06:16:36.677Z,13.00
2017-10-05T06:19:04.255Z,13.00
2017-10-05T06:21:31.772Z,13.10
2017-10-05T06:23:59.316Z,13.10
2017-10-05T06:26:27.641Z,13.00
2017-10-05T06:28:55.188Z,13.00
2017-10-05T06:31:23.197Z,13.10
2017-10-05T06:33:50.748Z,13.10
2017-10-05T06:36:18.264Z,13.10
2017-10-05T06:38:45.830Z,13.10
2017-10-05T06:41:14.121Z,13.10
2017-10-05T06:43:41.685Z,13.10
2017-10-05T06:46:09.199Z,13.10
2017-10-05T06:48:36.812Z,13.10
2017-10-05T06:51:04.362Z,13.10
2017-10-05T06:53:31.898Z,13.20
2017-10-05T06:56:00.246Z,13.30
2017-10-05T06:58:27.756Z,13.30
2017-10-05T07:00:55.310Z,13.30
2017-10-05T07:03:22.866Z,13.40
2017-10-05T07:05:51.169Z,13.50
2017-10-05T07:08:19.039Z,13.50
2017-10-05T07:10:46.565Z,13.50
2017-10-05T07:13:14.097Z,13.60
2017-10-05T07:15:41.643Z,13.60
2017-10-05T07:18:09.167Z,13.60
2017-10-05T07:20:37.056Z,13.70
2017-10-05T07:23:04.612Z,13.70
2017-10-05T07:25:32.119Z,13.80
2017-10-05T07:27:59.687Z,13.80
2017-10-05T07:30:27.987Z,13.90
2017-10-05T07:32:55.548Z,13.90
2017-10-05T07:35:23.077Z,13.90
2017-10-05T07:37:50.602Z,14.00
2017-10-05T07:40:18.143Z,14.00
2017-10-05T07:42:45.673Z,14.10
2017-10-05T07:45:14.295Z,14.10
2017-10-05T07:47:41.887Z,14.00
2017-10-05T07:50:09.398Z,14.10
2017-10-05T07:52:36.946Z,14.10
2017-10-05T07:55:05.232Z,14.10
2017-10-05T07:57:33.123Z,14.10
2017-10-05T08:00:00.635Z,14.10
2017-10-05T08:02:28.150Z,14.20
2017-10-05T08:04:55.695Z,14.20
2017-10-05T08:07:23.215Z,14.10
2017-10-05T08:09:50.786Z,14.10
2017-10-05T08:12:19.082Z,14.10
2017-10-05T08:14:46.600Z,14.10
2017-10-05T08:17:14.176Z,14.10
2017-10-05T08:19:41.703Z,14.00
2017-10-05T08:22:09.259Z,14.10
2017-10-05T08:24:36.774Z,14.10
2017-10-05T08:27:04.295Z,14.10
2017-10-05T08:29:31.839Z,14.20
2017-10-05T08:31:59.342Z,14.20
2017-10-05T08:34:27.951Z,14.30
2017-10-05T08:36:55.473Z,14.30
2017-10-05T08:39:22.987Z,14.30
2017-10-05T08:41:50.559Z,14.30
2017-10-05T08:44:18.070Z,14.30
2017-10-05T08:46:46.392Z,14.40
2017-10-05T08:49:13.914Z,14.40
2017-10-05T08:51:41.463Z,14.40
2017-10-05T08:54:09.782Z,14.40
2017-10-05T08:56:37.327Z,14.40
2017-10-05T08:59:05.306Z,14.40
2017-10-05T09:01:32.867Z,14.30
2017-10-05T09:04:00.399Z,14.40
2017-10-05T09:06:28.707Z,14.40
2017-10-05T09:08:56.227Z,14.40
2017-10-05T09:11:24.077Z,14.40
2017-10-05T09:13:51.591Z,14.40
2017-10-05T09:16:19.141Z,14.40
2017-10-05T09:18:47.532Z,14.40
2017-10-05T09:21:15.080Z,14.40
2017-10-05T09:23:42.911Z,14.40
2017-10-05T09:26:10.451Z,14.40
2017-10-05T09:28:37.999Z,14.40
2017-10-05T09:31:05.867Z,14.40
2017-10-05T09:33:33.403Z,14.40
2017-10-05T09:36:01.377Z,14.30
2017-10-05T09:38:28.898Z,14.30
2017-10-05T09:40:57.198Z,14.20
2017-10-05T09:43:24.738Z,14.20
2017-10-05T09:45:53.029Z,14.10
2017-10-05T09:48:21.384Z,14.20
2017-10-05T09:50:49.696Z,14.10
2017-10-05T09:53:17.236Z,14.10
2017-10-05T09:55:45.556Z,14.10
2017-10-05T09:58:13.075Z,14.10
2017-10-05T10:00:41.402Z,14.00
2017-10-05T10:03:08.945Z,14.00
2017-10-05T10:05:36.458Z,13.90
2017-10-05T10:08:04.799Z,13.90
2017-10-05T10:10:32.307Z,13.90
2017-10-05T10:13:00.657Z,14.00
2017-10-05T10:15:28.203Z,14.00
2017-10-05T10:17:55.742Z,14.00
2017-10-05T10:20:23.320Z,14.00
2017-10-05T10:22:50.892Z,14.10
2017-10-05T10:25:18.450Z,14.10
2017-10-05T10:27:45.955Z,14.20
2017-10-05T10:30:14.250Z,14.20
2017-10-05T10:32:41.788Z,14.20
2017-10-05T10:35:10.096Z,14.30
2017-10-05T10:37:37.664Z,14.30
2017-10-05T10:40:05.189Z,14.30
2017-10-05T10:42:33.528Z,14.40
2017-10-05T10:45:01.103Z,14.40
2017-10-05T10:47:28.647Z,14.50
2017-10-05T10:49:56.213Z,14.50
2017-10-05T10:52:23.750Z,14.60
2017-10-05T10:54:51.323Z,14.60
2017-10-05T10:57:18.880Z,14.60
2017-10-05T10:59:46.406Z,14.70
2017-10-05T11:02:13.971Z,14.70
2017-10-05T11:04:41.533Z,14.70
2017-10-05T11:07:09.101Z,14.80
2017-10-05T11:09:36.648Z,14.80
2017-10-05T11:12:05.120Z,14.90
2017-10-05T11:14:33.430Z,15.10
2017-10-05T11:17:01.013Z,14.90
2017-10-05T11:19:28.557Z,15.00
2017-10-05T11:21:56.149Z,15.00
2017-10-05T11:24:23.748Z,15.00
2017-10-05T11:26:52.071Z,15.00
2017-10-05T11:29:19.583Z,15.00
2017-10-05T11:31:48.097Z,14.80
2017-10-05T11:34:19.478Z,14.80
2017-10-05T11:36:47.053Z,14.70
2017-10-05T11:39:14.581Z,14.70
2017-10-05T11:41:42.140Z,14.60
2017-10-05T11:44:09.661Z,14.50
2017-10-05T11:46:38.296Z,14.40
2017-10-05T11:49:05.821Z,14.40
2017-10-05T11:51:33.364Z,14.40
2017-10-05T11:54:01.700Z,14.40
2017-10-05T11:56:29.234Z,14.40
2017-10-05T11:58:56.782Z,14.40
2017-10-05T12:01:24.300Z,14.40
2017-10-05T12:03:51.835Z,14.50
2017-10-05T12:06:19.357Z,14.50
2017-10-05T12:08:46.917Z,14.60
2017-10-05T12:11:14.490Z,14.70
2017-10-05T12:13:42.054Z,14.70
2017-10-05T12:16:09.566Z,14.80
2017-10-05T12:18:37.123Z,14.90
2017-10-05T12:21:04.654Z,15.00
2017-10-05T12:23:32.204Z,15.00
2017-10-05T12:25:59.750Z,15.10
2017-10-05T12:28:27.299Z,15.10
2017-10-05T12:30:54.839Z,15.10
2017-10-05T12:33:23.158Z,15.30
2017-10-05T12:35:50.685Z,15.30
2017-10-05T12:38:18.995Z,15.50
2017-10-05T12:40:46.564Z,15.50
2017-10-05T12:43:14.135Z,15.60
2017-10-05T12:45:41.655Z,15.70
2017-10-05T12:48:09.460Z,15.80
2017-10-05T12:50:36.995Z,16.00
2017-10-05T12:53:04.532Z,16.10
2017-10-05T12:55:33.188Z,16.30
2017-10-05T12:58:00.767Z,16.30
2017-10-05T13:00:29.089Z,16.50
2017-10-05T13:02:56.965Z,16.50
2017-10-05T13:05:24.505Z,16.60
2017-10-05T13:07:52.027Z,16.60
2017-10-05T13:10:19.859Z,16.70
2017-10-05T13:12:47.394Z,16.80
2017-10-05T13:15:14.939Z,16.90
2017-10-05T13:17:43.549Z,17.00
2017-10-05T13:20:11.874Z,17.10
2017-10-05T13:22:39.409Z,17.10
2017-10-05T13:25:07.261Z,17.20
2017-10-05T13:27:34.787Z,17.20
2017-10-05T13:30:03.127Z,17.40
2017-10-05T13:32:30.680Z,17.30
2017-10-05T13:34:58.200Z,17.40
2017-10-05T13:37:25.742Z,17.40
2017-10-05T13:39:54.046Z,17.40
2017-10-05T13:42:21.579Z,17.40
2017-10-05T13:44:49.876Z,17.40
2017-10-05T13:47:18.259Z,17.30
2017-10-05T13:49:45.816Z,17.30
2017-10-05T13:52:13.352Z,17.20
2017-10-05T13:54:41.670Z,16.80
2017-10-05T13:57:09.288Z,16.80
2017-10-05T13:59:37.713Z,17.30
2017-10-05T14:02:05.272Z,17.30
2017-10-05T14:04:33.153Z,17.80
2017-10-05T14:07:01.241Z,18.00
2017-10-05T14:09:28.813Z,18.00
2017-10-05T14:11:56.348Z,18.00
2017-10-05T14:14:23.955Z,18.00
2017-10-05T14:16:52.260Z,17.90
2017-10-05T14:19:19.865Z,17.80
2017-10-05T14:21:47.449Z,17.90
2017-10-05T14:24:15.093Z,17.90
2017-10-05T14:26:42.627Z,17.90
2017-10-05T14:29:10.200Z,18.00
2017-10-05T14:31:37.718Z,18.00
2017-10-05T14:34:06.420Z,18.00
2017-10-05T14:36:34.164Z,18.00
2017-10-05T14:39:02.472Z,18.10
2017-10-05T14:41:30.011Z,18.10
2017-10-05T14:43:58.346Z,17.90
2017-10-05T14:46:25.867Z,17.80
2017-10-05T14:48:53.416Z,17.20
2017-10-05T14:51:20.938Z,16.50
2017-10-05T14:53:49.420Z,15.90
2017-10-05T14:56:16.940Z,15.40
2017-10-05T14:58:44.596Z,15.00
2017-10-05T15:01:12.138Z,14.70
2017-10-05T15:03:40.854Z,14.50
2017-10-05T15:06:08.404Z,14.30
2017-10-05T15:08:35.954Z,14.30
2017-10-05T15:11:03.549Z,14.20
2017-10-05T15:13:31.069Z,14.20
2017-10-05T15:15:59.640Z,14.10
2017-10-05T15:18:27.195Z,14.10
2017-10-05T15:20:55.539Z,14.10
2017-10-05T15:23:23.112Z,14.10
2017-10-05T15:25:50.712Z,14.10
2017-10-05T15:28:18.251Z,14.20
2017-10-05T15:30:45.853Z,14.30
2017-10-05T15:33:13.387Z,14.30
2017-10-05T15:35:41.713Z,14.30
2017-10-05T15:38:09.276Z,14.30
2017-10-05T15:40:36.836Z,14.30
2017-10-05T15:43:04.451Z,14.40
2017-10-05T15:45:32.008Z,14.40
2017-10-05T15:48:00.280Z,14.50
2017-10-05T15:50:28.619Z,14.60
2017-10-05T15:52:56.530Z,14.60
2017-10-05T15:55:24.852Z,14.60
2017-10-05T15:57:53.220Z,14.60
2017-10-05T16:00:20.773Z,14.50
2017-10-05T16:02:48.448Z,14.50
2017-10-05T16:05:16.027Z,14.50
2017-10-05T16:07:43.596Z,14.40
2017-10-05T16:10:11.136Z,14.40
2017-10-05T16:12:38.677Z,14.30
2017-10-05T16:15:06.293Z,14.20
2017-10-05T16:17:34.606Z,14.20
2017-10-05T16:20:02.173Z,14.20
2017-10-05T16:22:29.706Z,14.10
2017-10-05T16:24:58.007Z,14.10
2017-10-05T16:27:25.558Z,14.10
2017-10-05T16:29:53.838Z,14.10
2017-10-05T16:32:22.159Z,14.10
2017-10-05T16:34:49.838Z,14.10
2017-10-05T16:37:17.435Z,14.00
2017-10-05T16:39:45.785Z,14.00
2017-10-05T16:42:13.330Z,14.00
2017-10-05T16:44:40.864Z,14.00
2017-10-05T16:47:08.421Z,14.00
2017-10-05T16:49:35.948Z,14.00
2017-10-05T16:52:04.292Z,13.90
2017-10-05T16:54:31.857Z,13.90
2017-10-05T16:56:59.473Z,13.90
2017-10-05T16:59:27.009Z,13.90
2017-10-05T17:01:55.436Z,13.80
2017-10-05T17:04:22.987Z,13.80
2017-10-05T17:06:50.548Z,13.70
2017-10-05T17:09:18.076Z,13.70
2017-10-05T17:11:46.064Z,13.70
2017-10-05T17:14:13.710Z,13.60
2017-10-05T17:16:42.021Z,13.60
2017-10-05T17:19:09.853Z,13.50
2017-10-05T17:21:38.160Z,13.50
2017-10-05T17:24:05.734Z,13.50
2017-10-05T17:26:33.556Z,13.40
2017-10-05T17:29:01.100Z,13.40
2017-10-05T17:31:29.076Z,13.40
2017-10-05T17:33:57.122Z,13.40
2017-10-05T17:36:24.658Z,13.40
2017-10-05T17:38:52.214Z,13.40
2017-10-05T17:41:20.136Z,13.40
2017-10-05T17:43:48.104Z,13.40
2017-10-05T17:46:16.430Z,13.40
2017-10-05T17:48:44.360Z,13.30
2017-10-05T17:51:11.887Z,13.30
2017-10-05T17:53:39.411Z,13.20
2017-10-05T17:56:07.253Z,13.10
2017-10-05T17:58:35.799Z,13.00
2017-10-05T18:01:03.315Z,13.00
2017-10-05T18:03:30.879Z,12.90
2017-10-05T18:05:58.436Z,12.80
2017-10-05T18:08:25.992Z,12.80
2017-10-05T18:10:53.548Z,12.70
2017-10-05T18:13:22.158Z,12.50
2017-10-05T18:15:49.691Z,12.50
2017-10-05T18:18:17.282Z,12.50
2017-10-05T18:20:44.937Z,12.40
2017-10-05T18:23:12.451Z,12.40
2017-10-05T18:25:40.030Z,12.30
2017-10-05T18:28:08.323Z,12.20
2017-10-05T18:30:36.644Z,12.20
2017-10-05T18:33:04.237Z,12.20
2017-10-05T18:35:31.894Z,12.10
2017-10-05T18:37:59.433Z,12.10
2017-10-05T18:40:27.016Z,12.10
2017-10-05T18:42:54.552Z,12.00
2017-10-05T18:45:22.119Z,11.90
2017-10-05T18:47:49.716Z,12.00
2017-10-05T18:50:17.368Z,12.00
2017-10-05T18:52:44.897Z,12.00
2017-10-05T18:55:13.351Z,12.00
2017-10-05T18:57:41.119Z,11.90
2017-10-05T19:00:08.769Z,11.90
2017-10-05T19:02:36.310Z,11.90
2017-10-05T19:05:04.663Z,11.90
2017-10-05T19:07:32.219Z,11.80
2017-10-05T19:09:59.764Z,11.90
2017-10-05T19:12:27.292Z,11.90
2017-10-05T19:14:54.862Z,11.80
2017-10-05T19:17:22.462Z,11.80
2017-10-05T19:19:50.248Z,11.80
2017-10-05T19:22:18.593Z,11.90
2017-10-05T19:24:46.149Z,11.90
2017-10-05T19:27:13.668Z,11.90
2017-10-05T19:29:41.680Z,12.00
2017-10-05T19:32:09.291Z,12.10
2017-10-05T19:34:37.686Z,12.10
2017-10-05T19:37:05.412Z,12.20
2017-10-05T19:39:33.301Z,12.30
2017-10-05T19:42:01.047Z,12.40
2017-10-05T19:44:28.837Z,12.40
2017-10-05T19:46:56.570Z,12.40
2017-10-05T19:49:24.155Z,12.40
2017-10-05T19:51:52.473Z,12.30
2017-10-05T19:54:20.056Z,12.20
2017-10-05T19:56:47.849Z,12.20
2017-10-05T19:59:15.407Z,12.10
2017-10-05T20:01:42.970Z,12.20
2017-10-05T20:04:10.482Z,12.20
2017-10-05T20:06:38.061Z,12.10
2017-10-05T20:09:05.679Z,12.20
2017-10-05T20:11:33.251Z,12.20
2017-10-05T20:14:02.384Z,12.20
2017-10-05T20:16:33.965Z,12.20
2017-10-05T20:19:01.618Z,12.30
2017-10-05T20:21:33.510Z,12.40
2017-10-05T20:24:05.682Z,12.50
2017-10-05T20:39:55.834Z,12.80
2017-10-05T20:42:24.493Z,12.80
2017-10-05T20:44:52.049Z,12.80
2017-10-05T20:47:19.575Z,12.80
2017-10-05T20:49:48.202Z,12.80
2017-10-05T20:52:15.801Z,12.80
2017-10-05T20:54:44.129Z,12.90
2017-10-05T20:57:11.942Z,12.80
2017-10-05T20:59:39.517Z,12.90
2017-10-05T21:02:07.838Z,12.90
2017-10-05T21:04:35.779Z,12.80
2017-10-05T21:07:03.377Z,12.90
2017-10-05T21:09:31.492Z,12.90
2017-10-05T21:12:00.130Z,12.90
2017-10-05T21:14:27.731Z,12.90
2017-10-05T21:16:55.414Z,12.90
2017-10-05T21:19:23.338Z,12.90
2017-10-05T21:21:50.926Z,12.90
2017-10-05T21:24:18.504Z,12.90
2017-10-05T21:26:47.403Z,12.90
2017-10-05T21:29:15.002Z,13.00
2017-10-05T21:31:42.587Z,13.00
2017-10-05T21:34:10.568Z,13.00
2017-10-05T21:36:38.571Z,13.00
2017-10-05T21:39:06.229Z,13.00
2017-10-05T21:41:35.052Z,13.00
2017-10-05T21:44:02.603Z,13.00
2017-10-05T21:46:30.178Z,13.00
2017-10-05T21:48:58.045Z,13.00
2017-10-05T21:51:25.563Z,13.00
2017-10-05T21:53:53.119Z,13.00
2017-10-05T21:56:21.147Z,12.90
2017-10-05T21:58:48.664Z,12.90
2017-10-05T22:01:16.977Z,12.80
2017-10-05T22:03:44.948Z,12.90
2017-10-05T22:06:12.502Z,12.90
2017-10-05T22:08:40.058Z,12.90
2017-10-05T22:11:07.926Z,12.80
2017-10-05T22:13:35.444Z,12.90
2017-10-05T22:16:03.022Z,12.90
2017-10-05T22:18:30.898Z,12.90
2017-10-05T22:20:58.448Z,12.90
2017-10-05T22:23:26.164Z,12.90
2017-10-05T22:25:53.998Z,12.90
2017-10-05T22:28:21.541Z,12.90
2017-10-05T22:30:49.069Z,13.00
2017-10-05T22:33:16.998Z,12.90
2017-10-05T22:35:44.520Z,13.00
2017-10-05T22:38:12.117Z,13.00
2017-10-05T22:40:39.990Z,13.00
2017-10-05T22:43:07.499Z,13.00
2017-10-05T22:45:35.035Z,13.00
2017-10-05T22:48:02.857Z,13.00
2017-10-05T22:50:30.393Z,13.00
2017-10-05T22:52:58.730Z,13.10
2017-10-05T22:55:26.584Z,13.10
2017-10-05T22:57:54.121Z,13.10
2017-10-05T23:00:21.630Z,13.10
2017-10-05T23:02:49.454Z,13.10
2017-10-05T23:05:16.979Z,13.10
2017-10-05T23:07:44.546Z,13.10
2017-10-05T23:10:13.168Z,13.10
2017-10-05T23:12:40.702Z,13.10
2017-10-05T23:15:08.993Z,13.10
2017-10-05T23:17:36.883Z,13.10
2017-10-05T23:20:04.399Z,13.10
2017-10-05T23:22:32.711Z,13.00
2017-10-05T23:25:00.585Z,13.00
2017-10-05T23:27:28.089Z,12.90
2017-10-05T23:29:55.615Z,12.90
2017-10-05T23:32:23.492Z,12.80
2017-10-05T23:34:51.007Z,12.90
2017-10-05T23:37:19.301Z,12.90
2017-10-05T23:39:47.155Z,12.80
2017-10-05T23:42:15.430Z,12.80
2017-10-05T23:44:42.990Z,12.80
2017-10-05T23:47:11.624Z,12.80
2017-10-05T23:49:39.163Z,12.90
2017-10-05T23:52:07.267Z,12.90
2017-10-05T23:54:35.114Z,12.90
2017-10-05T23:57:02.627Z,12.80
2017-10-05T23:59:30.946Z,12.80
